Thorco Crystal — V2BP9 — position and weather

sailwx.info

Track history (hours):
 
Tides and Currents Weather Stations Pressure Air Temp Water Temp Dewpoint Dewpoint Depression Visibility Wind Speed Wind Dir Waves Ship Positions

Thorco Crystal

Last reported at 2017-Feb-23 05:30 UTC. Time now 2017-Feb-24 12:41 UTC.
Position S 29°36' E 031°59'.

Length 145 m; draft 6 m.

Type: Cargo ship. MMSI: 304736000.

Date/timePositionNaut miles runAvg speedWind from/ knotsBaromVisibWave heightAir tempDewpointWater temp
2017-Feb-23 05:30S 29°36' E 031°59'1010.9
2017-Feb-23 04:33S 29°39' E 031°47'1110.9
2017-Feb-23 03:33S 29°42' E 031°35'1110.8
2017-Feb-23 02:33S 29°44' E 031°23'1212.4
2017-Feb-23 01:33S 29°49' E 031°10'7 7.3
2017-Feb-23 00:32S 29°52' E 031°02'0 0.0
2017-Feb-22 23:32S 29°52' E 031°02'0 0.0
2017-Feb-22 22:29S 29°52' E 031°02'0 0.0
2017-Feb-22 21:32S 29°52' E 031°02'0 0.0
2017-Feb-22 20:32S 29°52' E 031°02'0 0.0
2017-Feb-22 19:32S 29°52' E 031°02'0 0.0
2017-Feb-22 18:32S 29°52' E 031°02'0 0.0
2017-Feb-22 17:32S 29°52' E 031°02'0 0.0
2017-Feb-22 16:32S 29°52' E 031°02'0 0.0
2017-Feb-22 15:34S 29°52' E 031°02'0 0.0
2017-Feb-22 14:33S 29°52' E 031°02'0 0.0
2017-Feb-22 13:34S 29°52' E 031°02'1 0.8
2017-Feb-22 12:33S 29°52' E 031°03'4 3.9
2017-Feb-22 11:34S 29°49' E 031°06'1 0.7
2017-Feb-22 10:34S 29°48' E 031°06'4 3.8
2017-Feb-22 09:32S 29°46' E 031°09'4 4.1
2017-Feb-22 08:33S 29°48' E 031°12'4 3.8
2017-Feb-22 07:33S 29°51' E 031°10'3 3.0
2017-Feb-22 06:34S 29°54' E 031°09'5 4.9
2017-Feb-22 05:33S 29°58' E 031°07'1110.9
2017-Feb-22 04:34S 30°08' E 031°02'10 9.6
2017-Feb-22 03:33S 30°17' E 030°57'  
2017-Feb-15 15:29S 33°38' E 017°32'  
Track history (hours):
 
Tides and Currents Weather Stations Pressure Air Temp Water Temp Dewpoint Dewpoint Depression Visibility Wind Speed Wind Dir Waves Ship Positions

Thorco Crystal

Last reported at 2017-Feb-23 05:30 UTC. Time now 2017-Feb-24 12:41 UTC.
Position S 29°36' E 031°59'.

Length 145 m; draft 6 m.

Type: Cargo ship. MMSI: 304736000.

Date/timePositionNaut miles runAvg speedWind from/ knotsBaromVisibWave heightAir tempDewpointWater temp
2017-Feb-23 05:30S 29°36' E 031°59'1010.9
2017-Feb-23 04:33S 29°39' E 031°47'1110.9
2017-Feb-23 03:33S 29°42' E 031°35'1110.8
2017-Feb-23 02:33S 29°44' E 031°23'1212.4
2017-Feb-23 01:33S 29°49' E 031°10'7 7.3
2017-Feb-23 00:32S 29°52' E 031°02'0 0.0
2017-Feb-22 23:32S 29°52' E 031°02'0 0.0
2017-Feb-22 22:29S 29°52' E 031°02'0 0.0
2017-Feb-22 21:32S 29°52' E 031°02'0 0.0
2017-Feb-22 20:32S 29°52' E 031°02'0 0.0
2017-Feb-22 19:32S 29°52' E 031°02'0 0.0
2017-Feb-22 18:32S 29°52' E 031°02'0 0.0
2017-Feb-22 17:32S 29°52' E 031°02'0 0.0
2017-Feb-22 16:32S 29°52' E 031°02'0 0.0
2017-Feb-22 15:34S 29°52' E 031°02'0 0.0
2017-Feb-22 14:33S 29°52' E 031°02'0 0.0
2017-Feb-22 13:34S 29°52' E 031°02'1 0.8
2017-Feb-22 12:33S 29°52' E 031°03'4 3.9
2017-Feb-22 11:34S 29°49' E 031°06'1 0.7
2017-Feb-22 10:34S 29°48' E 031°06'4 3.8
2017-Feb-22 09:32S 29°46' E 031°09'4 4.1
2017-Feb-22 08:33S 29°48' E 031°12'4 3.8
2017-Feb-22 07:33S 29°51' E 031°10'3 3.0
2017-Feb-22 06:34S 29°54' E 031°09'5 4.9
2017-Feb-22 05:33S 29°58' E 031°07'1110.9
2017-Feb-22 04:34S 30°08' E 031°02'10 9.6
2017-Feb-22 03:33S 30°17' E 030°57'  
2017-Feb-15 15:29S 33°38' E 017°32'  

Dump ship's entire track history